Meteo Giornale » Osservazioni meteo Sud Africa » Mmabatho
ore: 08:00 - Osservazioni Meteo Mmabatho
Lat. 25° 47' S Lon. 25° 32' E Alt. 1281 metri s.l.m.
19 °C
Sereno
Temp. 24 Ore
12 °C
28 °C
Nord-Est
20.3 Km/h
Dew point 4 °C
Umidità 37 %
Visibilità 10 Km
Il sole sorge alle ore 06:30
Il sole tramonta alle ore 18:05
| Data e Ora | Cielo e Fenomeni | T °C | DP °C | Um. % | Pres. hPa | Vis. km | Vento km/h | |
|---|---|---|---|---|---|---|---|---|
| Oggi h: 08:00 | Sereno | 19 | 4 | 37 | 1027 | 10 | NE 20.3 | |
| Oggi h: 07:32 | Sereno | 18 | 4 | 39 | 1027 | 10 | NE 20.3 | |
| Oggi h: 07:00 | Sereno | 16 | 3 | 41 | 1027 | 10 | NE 20.3 | |
| Oggi h: 06:00 | Sereno | 15 | 3 | 44 | 1026 | 10 | NE 16.7 | |
| Oggi h: 05:00 | Sereno | 12 | 3 | 54 | 1025 | 10 | E/NE 11.1 | |
| Oggi h: 04:00 | Sereno | 13 | 3 | 50 | 1025 | 10 | E 11.1 | |
| Oggi h: 03:00 | Sereno | 13 | 3 | 50 | 1025 | 10 | E/SE 13 | |
| Oggi h: 02:00 | Sereno | 15 | 2 | 41 | 1025 | 10 | E 13 | |
| Oggi h: 01:00 | Sereno | 15 | 3 | 44 | 1025 | 0 | E/NE 14.8 | |
| Oggi h: 00:00 | Sereno | 15 | 3 | 44 | 1026 | 0 | E 14.8 | |
| Ieri h: 23:00 | Sereno | 13 | 3 | 50 | 1026 | 0 | E/SE 9.3 | |
| Ieri h: 22:00 | Sereno | 13 | 3 | 50 | 1026 | 0 | NE 11.1 | |
| Ieri h: 21:00 | Sereno | 15 | 3 | 44 | 1026 | 0 | NE 9.3 | |
| Ieri h: 20:00 | Sereno | 16 | 3 | 41 | 1025 | 10 | NE 11.1 | |
| Ieri h: 19:00 | Sereno | 19 | 2 | 32 | 1025 | 10 | E/NE 9.3 | |
| Ieri h: 18:00 | Sereno | 23 | 2 | 25 | 1025 | 10 | N 5.5 | |
| Ieri h: 17:00 | Sereno | 26 | 2 | 20 | 1024 | 10 | N 5.5 | |
| Ieri h: 16:00 | Sereno | 27 | 1 | 18 | 1024 | 10 | N 5.5 | |
| Ieri h: 15:00 | Sereno | 28 | 2 | 18 | 1024 | 10 | SO 7.4 | |
| Ieri h: 14:00 | Sereno | 28 | 2 | 18 | 1025 | 10 | N/NO 11.1 | |
| Ieri h: 13:00 | Sereno | 28 | 3 | 20 | 1025 | 10 | N/NE 11.1 | |
| Ieri h: 12:00 | Sereno | 27 | 3 | 21 | 1026 | 10 | N/NE 20.3 | |
| Ieri h: 11:00 | Sereno | 26 | 3 | 22 | 1026 | 10 | N/NE 20.3 | |
| Ieri h: 10:00 | Sereno | 25 | 3 | 23 | 1026 | 10 | N/NE 22.2 | |
| Ieri h: 09:00 | Sereno | 23 | 3 | 26 | 1026 | 10 | N/NE 22.2 | |
| Ieri h: 08:55 | Sereno | 23 | 3 | 26 | 1026 | 10 | N/NE 22.2 | |
| Ieri h: 08:31 | Sereno | 20 | 3 | 32 | 1026 | 10 | N/NE 16.7 | |



